createdAt,value
2023-01-13T00:01:16.442Z,0.85
2023-01-13T00:03:44.634Z,1.50
2023-01-13T00:06:14.793Z,0.30
2023-01-13T00:08:42.273Z,0.20
2023-01-13T00:11:10.663Z,0.57
2023-01-13T00:13:38.901Z,0.38
2023-01-13T00:16:10.409Z,1.15
2023-01-13T00:18:38.096Z,0.40
2023-01-13T00:21:06.852Z,1.30
2023-01-13T00:23:35.834Z,0.32
2023-01-13T00:26:09.832Z,1.05
2023-01-13T00:28:37.442Z,0.32
2023-01-13T00:31:14.119Z,0.88
2023-01-13T00:33:41.965Z,0.50
2023-01-13T00:36:13.214Z,1.05
2023-01-13T00:38:42.970Z,0.30
2023-01-13T00:41:19.049Z,0.50
2023-01-13T00:43:47.281Z,0.30
2023-01-13T00:46:17.189Z,0.55
2023-01-13T00:48:45.622Z,0.68
2023-01-13T00:51:21.418Z,1.90
2023-01-13T00:53:51.685Z,2.25
2023-01-13T00:56:39.308Z,1.77
2023-01-13T00:59:10.537Z,0.52
2023-01-13T01:01:38.327Z,0.85
2023-01-13T01:04:06.484Z,0.35
2023-01-13T01:06:33.952Z,0.50
2023-01-13T01:09:01.574Z,1.45
2023-01-13T01:11:30.998Z,1.38
2023-01-13T01:14:01.081Z,0.30
2023-01-13T01:16:30.881Z,0.17
2023-01-13T01:18:59.490Z,1.40
2023-01-13T01:21:28.289Z,0.52
2023-01-13T01:23:56.122Z,0.57
2023-01-13T01:26:25.491Z,1.02
2023-01-13T01:28:54.069Z,0.30
2023-01-13T01:31:23.800Z,0.85
2023-01-13T01:33:51.974Z,2.13
2023-01-13T01:36:21.094Z,0.43
2023-01-13T01:38:49.651Z,0.80
2023-01-13T01:41:22.900Z,0.65
2023-01-13T01:44:00.051Z,0.30
2023-01-13T01:46:38.786Z,1.13
2023-01-13T01:49:22.248Z,1.80
2023-01-13T01:51:55.964Z,1.33
2023-01-13T01:55:05.232Z,0.32
2023-01-13T01:57:47.602Z,0.73
2023-01-13T02:00:15.331Z,1.60
2023-01-13T02:02:46.462Z,0.65
2023-01-13T02:05:14.203Z,0.73
2023-01-13T02:07:45.043Z,0.20
2023-01-13T02:10:15.872Z,0.50
2023-01-13T02:12:45.215Z,0.20
2023-01-13T02:15:21.158Z,1.10
2023-01-13T02:17:48.535Z,0.30
2023-01-13T02:20:43.635Z,0.20
2023-01-13T02:23:47.852Z,0.28
2023-01-13T02:26:29.516Z,0.40
2023-01-13T02:29:34.154Z,0.40
2023-01-13T02:32:26.453Z,1.08
2023-01-13T02:35:06.525Z,0.65
2023-01-13T02:37:39.203Z,1.52
2023-01-13T02:40:14.997Z,0.57
2023-01-13T02:43:18.838Z,1.13
2023-01-13T02:45:56.235Z,0.37
2023-01-13T02:48:25.465Z,1.15
2023-01-13T02:51:07.823Z,0.45
2023-01-13T02:53:41.610Z,0.45
2023-01-13T02:58:42.037Z,0.90
2023-01-13T03:01:09.739Z,0.40
2023-01-13T03:03:37.321Z,1.70
2023-01-13T03:06:39.327Z,0.75
2023-01-13T03:09:33.084Z,0.95
2023-01-13T03:12:17.890Z,0.57
2023-01-13T03:15:12.119Z,1.27
2023-01-13T03:17:49.949Z,1.58
2023-01-13T03:20:27.592Z,0.40
2023-01-13T03:22:57.956Z,0.28
2023-01-13T03:25:56.428Z,0.32
2023-01-13T03:28:31.916Z,0.47
2023-01-13T03:31:07.131Z,0.20
2023-01-13T03:33:41.664Z,0.30
2023-01-13T03:36:12.629Z,1.58
2023-01-13T03:38:45.817Z,0.38
2023-01-13T03:41:24.999Z,0.30
2023-01-13T03:44:23.723Z,0.63
2023-01-13T03:47:18.175Z,0.25
2023-01-13T03:52:22.718Z,0.57
2023-01-13T03:54:56.929Z,0.15
2023-01-13T03:57:30.597Z,0.93
2023-01-13T04:00:04.193Z,0.10
2023-01-13T04:03:14.724Z,0.68
2023-01-13T04:05:47.686Z,0.10
2023-01-13T04:08:25.478Z,0.20
2023-01-13T04:11:00.437Z,0.30
2023-01-13T04:13:32.480Z,0.85
2023-01-13T04:16:00.649Z,3.42
2023-01-13T04:18:33.245Z,0.47
2023-01-13T04:21:01.963Z,0.90
2023-01-13T04:23:29.531Z,0.65
2023-01-13T04:25:57.317Z,0.20
2023-01-13T04:28:25.242Z,0.10
2023-01-13T04:30:52.810Z,0.90
2023-01-13T04:33:20.533Z,0.10
2023-01-13T04:35:48.840Z,0.50
2023-01-13T04:38:18.470Z,0.40
2023-01-13T04:40:46.201Z,0.47
2023-01-13T04:43:15.870Z,0.55
2023-01-13T04:45:44.046Z,0.20
2023-01-13T04:48:11.961Z,0.30
2023-01-13T04:50:39.559Z,0.68
2023-01-13T04:53:07.398Z,0.30
2023-01-13T04:55:35.468Z,0.73
2023-01-13T04:58:04.893Z,0.35
2023-01-13T05:00:32.688Z,0.47
2023-01-13T05:03:00.534Z,0.68
2023-01-13T05:05:29.650Z,0.80
2023-01-13T05:07:57.949Z,0.90
2023-01-13T05:10:25.965Z,0.25
2023-01-13T05:13:12.317Z,0.10
2023-01-13T05:15:59.698Z,0.10
2023-01-13T05:18:29.791Z,0.90
2023-01-13T05:20:57.302Z,0.10
2023-01-13T05:23:43.540Z,0.10
2023-01-13T05:26:11.041Z,0.10
2023-01-13T05:28:38.578Z,0.30
2023-01-13T05:31:06.328Z,0.10
2023-01-13T05:33:35.776Z,0.10
2023-01-13T05:36:04.101Z,1.80
2023-01-13T05:38:31.699Z,0.52
2023-01-13T05:41:18.873Z,1.13
2023-01-13T05:43:46.531Z,0.10
2023-01-13T05:50:21.100Z,0.10
2023-01-13T05:52:48.928Z,0.52
2023-01-13T05:55:16.596Z,0.20
2023-01-13T05:57:44.220Z,0.20
2023-01-13T06:00:12.210Z,0.10
2023-01-13T06:02:39.884Z,0.20
2023-01-13T06:05:07.934Z,0.45
2023-01-13T06:07:35.520Z,0.93
2023-01-13T06:10:03.029Z,3.33
2023-01-13T06:12:30.561Z,0.47
2023-01-13T06:14:58.060Z,0.22
2023-01-13T06:17:25.560Z,1.38
2023-01-13T06:19:53.030Z,0.10
2023-01-13T06:22:35.748Z,0.45
2023-01-13T06:25:03.942Z,0.10
2023-01-13T06:27:31.507Z,0.20
2023-01-13T06:29:59.020Z,0.10
2023-01-13T06:32:32.767Z,0.30
2023-01-13T06:35:08.296Z,0.03
2023-01-13T06:37:37.366Z,0.10
2023-01-13T06:40:07.553Z,0.43
2023-01-13T06:42:55.493Z,0.13
2023-01-13T06:45:25.483Z,1.55
2023-01-13T06:47:54.664Z,0.45
2023-01-13T06:50:22.243Z,0.70
2023-01-13T06:52:49.712Z,0.10
2023-01-13T06:55:17.261Z,0.10
2023-01-13T06:57:52.908Z,0.10
2023-01-13T07:00:21.818Z,0.38
2023-01-13T07:02:50.060Z,0.10
2023-01-13T07:05:18.868Z,0.20
2023-01-13T07:07:46.579Z,0.10
2023-01-13T07:10:22.379Z,0.10
2023-01-13T07:13:08.841Z,0.05
2023-01-13T07:15:36.495Z,0.10
2023-01-13T07:18:04.129Z,0.10
2023-01-13T07:20:31.934Z,0.20
2023-01-13T07:22:59.554Z,0.22
2023-01-13T07:25:27.173Z,0.10
2023-01-13T07:27:57.615Z,0.10
2023-01-13T07:30:25.087Z,0.40
2023-01-13T07:32:52.632Z,0.32
2023-01-13T07:35:23.189Z,0.10
2023-01-13T07:37:50.820Z,0.50
2023-01-13T07:40:18.327Z,0.55
2023-01-13T07:43:04.469Z,0.15
2023-01-13T07:45:31.950Z,0.50
2023-01-13T07:47:59.452Z,0.10
2023-01-13T07:50:26.980Z,1.65
2023-01-13T07:52:58.087Z,0.10
2023-01-13T07:55:25.716Z,0.25
2023-01-13T07:57:53.160Z,0.22
2023-01-13T08:00:21.220Z,0.08
2023-01-13T08:02:48.753Z,0.57
2023-01-13T08:05:16.738Z,0.10
2023-01-13T08:07:44.259Z,0.10
2023-01-13T08:10:12.065Z,0.22
2023-01-13T08:12:58.335Z,0.30
2023-01-13T08:15:25.901Z,0.22
2023-01-13T08:17:53.340Z,0.75
2023-01-13T08:20:20.913Z,1.15
2023-01-13T08:22:48.453Z,0.10
2023-01-13T08:25:16.023Z,0.10
2023-01-13T08:27:43.519Z,0.10
2023-01-13T08:30:11.578Z,0.00
2023-01-13T08:32:39.082Z,0.20
2023-01-13T08:35:07.934Z,0.65
2023-01-13T08:37:35.419Z,0.35
2023-01-13T08:40:02.997Z,0.30
2023-01-13T08:42:31.178Z,0.20
2023-01-13T08:44:59.018Z,0.10
2023-01-13T08:47:29.973Z,0.22
2023-01-13T08:49:57.591Z,0.20
2023-01-13T08:52:25.318Z,0.60
2023-01-13T08:54:52.881Z,2.92
2023-01-13T08:57:20.622Z,2.10
2023-01-13T08:59:48.261Z,3.25
2023-01-13T09:02:18.861Z,2.28
2023-01-13T09:04:48.283Z,3.28
2023-01-13T09:07:16.732Z,2.85
2023-01-13T09:09:44.384Z,3.05
2023-01-13T09:12:32.802Z,3.25
2023-01-13T09:15:00.968Z,2.30
2023-01-13T09:17:28.531Z,2.70
2023-01-13T09:19:55.994Z,2.55
2023-01-13T09:22:27.145Z,3.03
2023-01-13T09:24:55.813Z,2.47
2023-01-13T09:27:23.779Z,2.20
2023-01-13T09:29:51.330Z,2.60
2023-01-13T09:32:18.846Z,3.20
2023-01-13T09:35:01.566Z,2.10
2023-01-13T09:37:34.888Z,3.63
2023-01-13T09:40:08.048Z,3.60
2023-01-13T09:43:19.783Z,2.38
2023-01-13T09:46:30.801Z,2.70
2023-01-13T09:48:59.312Z,3.50
2023-01-13T09:51:48.992Z,2.50
2023-01-13T09:54:32.316Z,2.40
2023-01-13T09:57:00.105Z,1.77
2023-01-13T09:59:34.709Z,1.38
2023-01-13T10:02:08.137Z,1.30
2023-01-13T10:04:35.742Z,0.43
2023-01-13T10:07:05.980Z,0.63
2023-01-13T10:09:49.439Z,1.13
2023-01-13T10:12:41.385Z,0.55
2023-01-13T10:15:17.794Z,0.73
2023-01-13T10:17:56.143Z,1.08
2023-01-13T10:20:30.456Z,0.15
2023-01-13T10:23:39.095Z,0.75
2023-01-13T10:26:34.120Z,0.47
2023-01-13T10:29:01.686Z,1.50
2023-01-13T10:31:29.272Z,2.22
2023-01-13T10:34:01.719Z,1.65
2023-01-13T10:36:29.311Z,2.30
2023-01-13T10:39:10.100Z,2.03
2023-01-13T10:41:40.663Z,0.80
2023-01-13T10:44:16.695Z,2.38
2023-01-13T10:46:56.742Z,0.85
2023-01-13T10:49:36.348Z,1.23
2023-01-13T10:52:23.817Z,0.68
2023-01-13T10:54:53.087Z,0.73
2023-01-13T10:57:25.757Z,2.08
2023-01-13T10:59:54.895Z,0.98
2023-01-13T11:02:36.102Z,0.98
2023-01-13T11:05:24.661Z,0.88
2023-01-13T11:07:55.095Z,0.50
2023-01-13T11:10:27.606Z,1.10
2023-01-13T11:13:17.172Z,1.55
2023-01-13T11:15:56.082Z,1.27
2023-01-13T11:18:32.524Z,1.85
2023-01-13T11:21:01.721Z,1.55
2023-01-13T11:23:37.639Z,0.40
2023-01-13T11:26:16.541Z,0.55
2023-01-13T11:29:08.340Z,1.10
2023-01-13T11:31:51.655Z,0.45
2023-01-13T11:34:24.909Z,0.30
2023-01-13T11:36:55.576Z,0.60
2023-01-13T11:39:54.056Z,1.15
2023-01-13T11:42:21.487Z,0.20
2023-01-13T11:45:19.963Z,0.68
2023-01-13T11:47:51.311Z,0.70
2023-01-13T11:50:40.649Z,0.55
2023-01-13T11:53:26.862Z,1.63
2023-01-13T11:55:57.327Z,1.80
2023-01-13T11:58:51.192Z,0.10
2023-01-13T12:02:00.462Z,1.50
2023-01-13T12:04:46.652Z,1.77
2023-01-13T12:07:51.718Z,0.35
2023-01-13T12:10:58.258Z,1.20
2023-01-13T12:13:34.791Z,2.67
2023-01-13T12:16:11.535Z,0.88
2023-01-13T12:19:16.322Z,0.20
2023-01-13T12:24:38.304Z,2.42
2023-01-13T12:27:38.093Z,0.20
2023-01-13T12:30:22.442Z,0.70
2023-01-13T12:32:52.677Z,1.00
2023-01-13T12:35:39.695Z,1.33
2023-01-13T12:38:35.715Z,0.90
2023-01-13T12:41:29.666Z,0.50
2023-01-13T12:44:16.681Z,0.57
2023-01-13T12:46:50.598Z,1.10
2023-01-13T12:51:52.927Z,0.93
2023-01-13T12:54:41.655Z,1.38
2023-01-13T12:57:22.037Z,1.63
2023-01-13T13:00:04.960Z,1.45
2023-01-13T13:02:36.065Z,2.22
2023-01-13T13:05:24.048Z,2.25
2023-01-13T13:08:18.891Z,0.75
2023-01-13T13:11:34.303Z,1.30
2023-01-13T13:14:04.261Z,1.27
2023-01-13T13:16:31.959Z,2.63
2023-01-13T13:19:17.984Z,2.17
2023-01-13T13:22:13.536Z,0.90
2023-01-13T13:24:43.210Z,3.25
2023-01-13T13:27:26.433Z,1.63
2023-01-13T13:30:04.196Z,1.77
2023-01-13T13:32:55.805Z,2.22
2023-01-13T13:35:29.320Z,0.93
2023-01-13T13:38:24.490Z,2.55
2023-01-13T13:41:10.659Z,1.35
2023-01-13T13:44:03.985Z,0.40
2023-01-13T13:46:47.276Z,1.42
2023-01-13T13:49:34.469Z,1.40
2023-01-13T13:52:12.389Z,1.67
2023-01-13T13:54:43.450Z,2.08
2023-01-13T13:57:39.863Z,0.70
2023-01-13T14:00:23.251Z,0.30
2023-01-13T14:03:03.102Z,0.88
2023-01-13T14:05:35.688Z,0.55
2023-01-13T14:08:17.249Z,0.65
2023-01-13T14:10:46.400Z,0.93
2023-01-13T14:13:23.882Z,0.80
2023-01-13T14:16:03.489Z,0.82
2023-01-13T14:18:45.127Z,1.20
2023-01-13T14:21:20.081Z,2.00
2023-01-13T14:24:00.535Z,0.80
2023-01-13T14:26:30.841Z,0.93
2023-01-13T14:29:02.087Z,0.50
2023-01-13T14:31:31.661Z,0.38
2023-01-13T14:34:03.450Z,0.95
2023-01-13T14:36:51.469Z,0.55
2023-01-13T14:39:18.906Z,1.42
2023-01-13T14:41:48.342Z,3.33
2023-01-13T14:44:36.119Z,1.40
2023-01-13T14:47:19.645Z,1.42
2023-01-13T14:50:19.421Z,1.33
2023-01-13T14:52:49.698Z,1.00
2023-01-13T14:55:25.125Z,2.67
2023-01-13T14:57:52.814Z,0.80
2023-01-13T15:00:22.522Z,1.80
2023-01-13T15:02:53.637Z,3.40
2023-01-13T15:05:23.797Z,1.20
2023-01-13T15:08:11.259Z,1.70
2023-01-13T15:10:51.516Z,1.52
2023-01-13T15:13:41.176Z,0.85
2023-01-13T15:16:33.837Z,1.15
2023-01-13T15:19:02.981Z,1.25
2023-01-13T15:21:30.414Z,1.77
2023-01-13T15:23:57.932Z,2.70
2023-01-13T15:26:28.066Z,1.08
2023-01-13T15:28:57.759Z,0.98
2023-01-13T15:31:26.062Z,1.35
2023-01-13T15:33:54.268Z,0.85
2023-01-13T15:36:31.249Z,1.88
2023-01-13T15:39:00.163Z,1.30
2023-01-13T15:41:46.533Z,1.70
2023-01-13T15:44:34.773Z,2.38
2023-01-13T15:47:06.356Z,2.85
2023-01-13T15:49:43.757Z,2.03
2023-01-13T15:52:21.657Z,1.23
2023-01-13T15:54:50.354Z,0.95
2023-01-13T15:57:30.649Z,2.70
2023-01-13T16:00:00.942Z,3.55
2023-01-13T16:02:29.850Z,2.58
2023-01-13T16:04:57.595Z,3.67
2023-01-13T16:07:25.796Z,2.00
2023-01-13T16:09:53.752Z,1.35
2023-01-13T16:12:21.709Z,3.45
2023-01-13T16:14:49.306Z,2.47
2023-01-13T16:17:19.913Z,1.45
2023-01-13T16:19:47.879Z,5.28
2023-01-13T16:22:16.768Z,4.00
2023-01-13T16:24:44.644Z,1.08
2023-01-13T16:27:21.156Z,2.97
2023-01-13T16:29:49.690Z,0.95
2023-01-13T16:32:17.267Z,3.95
2023-01-13T16:34:44.857Z,2.60
2023-01-13T16:37:26.815Z,3.40
2023-01-13T16:39:55.159Z,3.72
2023-01-13T16:42:23.003Z,3.58
2023-01-13T16:44:51.989Z,3.60
2023-01-13T16:47:19.584Z,3.50
2023-01-13T16:49:47.521Z,1.83
2023-01-13T16:52:15.647Z,3.53
2023-01-13T16:54:43.168Z,2.97
2023-01-13T16:57:14.318Z,3.47
2023-01-13T16:59:41.926Z,3.05
2023-01-13T17:02:15.322Z,1.25
2023-01-13T17:04:43.595Z,2.45
2023-01-13T17:07:16.756Z,6.22
2023-01-13T17:09:44.317Z,3.17
2023-01-13T17:12:11.902Z,2.10
2023-01-13T17:14:40.178Z,2.03
2023-01-13T17:17:21.048Z,7.60
2023-01-13T17:19:48.653Z,2.08
2023-01-13T17:22:16.144Z,3.05
2023-01-13T17:24:43.572Z,4.05
2023-01-13T17:27:11.233Z,2.08
2023-01-13T17:29:39.030Z,5.05
2023-01-13T17:32:06.601Z,2.65
2023-01-13T17:34:34.133Z,3.20
2023-01-13T17:37:01.578Z,3.17
2023-01-13T17:39:29.014Z,4.03
2023-01-13T17:41:56.494Z,4.60
2023-01-13T17:44:24.254Z,4.57
2023-01-13T17:46:51.754Z,6.57
2023-01-13T17:49:21.951Z,5.20
2023-01-13T17:51:51.228Z,6.25
2023-01-13T17:54:19.302Z,5.05
2023-01-13T17:56:47.366Z,4.95
2023-01-13T17:59:17.656Z,5.53
2023-01-13T18:01:45.808Z,4.85
2023-01-13T18:04:18.368Z,4.40
2023-01-13T18:06:46.357Z,5.75
2023-01-13T18:09:14.045Z,9.77
2023-01-13T18:11:42.846Z,5.20
2023-01-13T18:14:11.508Z,7.35
2023-01-13T18:16:39.318Z,2.63
2023-01-13T18:19:25.946Z,6.65
2023-01-13T18:22:12.184Z,7.60
2023-01-13T18:24:58.261Z,6.53
2023-01-13T18:27:32.425Z,2.50
2023-01-13T18:30:01.485Z,8.27
2023-01-13T18:32:32.787Z,7.03
2023-01-13T18:35:07.107Z,3.95
2023-01-13T18:37:40.458Z,2.92
2023-01-13T18:40:10.785Z,5.90
2023-01-13T18:42:55.071Z,6.90
2023-01-13T18:45:28.399Z,4.75
2023-01-13T18:47:58.530Z,6.10
2023-01-13T18:50:27.235Z,5.65
2023-01-13T18:52:55.183Z,2.95
2023-01-13T18:55:23.677Z,3.22
2023-01-13T18:57:51.965Z,6.90
2023-01-13T19:00:21.292Z,7.78
2023-01-13T19:02:50.851Z,4.68
2023-01-13T19:05:18.689Z,4.45
2023-01-13T19:07:51.031Z,5.35
2023-01-13T19:10:19.180Z,4.80
2023-01-13T19:12:46.594Z,4.25
2023-01-13T19:15:14.185Z,4.35
2023-01-13T19:17:41.803Z,5.25
2023-01-13T19:20:11.375Z,6.72
2023-01-13T19:22:39.029Z,5.28
2023-01-13T19:25:06.861Z,5.18
2023-01-13T19:27:34.405Z,5.32
2023-01-13T19:30:02.087Z,4.65
2023-01-13T19:32:30.987Z,3.50
2023-01-13T19:34:59.839Z,4.40
2023-01-13T19:37:31.697Z,3.63
2023-01-13T19:39:59.745Z,4.55
2023-01-13T19:42:46.213Z,8.30
2023-01-13T19:45:27.522Z,5.72
2023-01-13T19:47:57.139Z,4.20
2023-01-13T19:50:25.494Z,4.13
2023-01-13T19:52:53.063Z,2.80
2023-01-13T19:55:20.699Z,3.85
2023-01-13T19:57:48.240Z,5.70
2023-01-13T20:00:20.555Z,1.73
2023-01-13T20:02:49.808Z,4.55
2023-01-13T20:05:22.488Z,3.25
2023-01-13T20:07:51.143Z,3.30
2023-01-13T20:10:20.909Z,4.43
2023-01-13T20:12:48.431Z,3.40
2023-01-13T20:15:16.095Z,3.70
2023-01-13T20:17:43.684Z,5.95
2023-01-13T20:20:12.197Z,4.88
2023-01-13T20:22:40.001Z,8.80
2023-01-13T20:25:08.599Z,3.92
2023-01-13T20:27:36.636Z,1.63
2023-01-13T20:30:05.825Z,5.65
2023-01-13T20:32:33.287Z,10.18
2023-01-13T20:35:00.719Z,5.07
2023-01-13T20:37:28.210Z,6.50
2023-01-13T20:39:58.159Z,4.85
2023-01-13T20:42:44.384Z,6.85
2023-01-13T20:45:17.480Z,5.38
2023-01-13T20:47:45.904Z,6.50
2023-01-13T20:50:14.006Z,7.15
2023-01-13T20:52:41.643Z,6.47
2023-01-13T20:55:10.090Z,4.32
2023-01-13T20:57:37.580Z,8.85
2023-01-13T21:00:05.995Z,3.42
2023-01-13T21:02:33.616Z,7.65
2023-01-13T21:05:01.433Z,9.55
2023-01-13T21:07:28.865Z,6.78
2023-01-13T21:09:57.505Z,7.88
2023-01-13T21:12:43.387Z,2.75
2023-01-13T21:15:17.845Z,6.40
2023-01-13T21:18:05.579Z,2.90
2023-01-13T21:20:35.017Z,4.65
2023-01-13T21:23:04.051Z,7.18
2023-01-13T21:25:34.567Z,4.85
2023-01-13T21:28:11.501Z,5.15
2023-01-13T21:30:39.703Z,7.80
2023-01-13T21:33:07.368Z,9.55
2023-01-13T21:35:38.101Z,3.85
2023-01-13T21:38:05.640Z,3.90
2023-01-13T21:40:33.168Z,2.30
2023-01-13T21:43:19.422Z,7.10
2023-01-13T21:46:05.780Z,4.57
2023-01-13T21:48:33.271Z,2.47
2023-01-13T21:51:01.541Z,3.35
2023-01-13T21:53:29.133Z,4.47
2023-01-13T21:55:56.567Z,5.75
2023-01-13T21:58:24.119Z,3.47
2023-01-13T22:00:51.586Z,3.75
2023-01-13T22:03:20.141Z,5.63
2023-01-13T22:05:54.646Z,4.97
2023-01-13T22:08:22.267Z,4.82
2023-01-13T22:10:59.496Z,4.15
2023-01-13T22:13:47.741Z,2.10
2023-01-13T22:16:16.138Z,5.20
2023-01-13T22:18:43.672Z,4.60
2023-01-13T22:21:11.399Z,3.60
2023-01-13T22:23:38.925Z,4.78
2023-01-13T22:26:08.327Z,5.47
2023-01-13T22:28:45.157Z,7.40
2023-01-13T22:31:19.098Z,2.47
2023-01-13T22:33:48.050Z,5.28
2023-01-13T22:36:16.365Z,6.57
2023-01-13T22:38:44.530Z,2.28
2023-01-13T22:41:12.046Z,2.55
2023-01-13T22:43:41.079Z,5.65
2023-01-13T22:46:11.063Z,2.40
2023-01-13T22:48:40.032Z,3.40
2023-01-13T22:51:10.090Z,3.65
2023-01-13T22:53:38.387Z,4.10
2023-01-13T22:56:06.908Z,4.93
2023-01-13T22:58:34.470Z,1.23
2023-01-13T23:01:14.166Z,1.65
2023-01-13T23:03:42.465Z,4.15
2023-01-13T23:06:10.060Z,4.50
2023-01-13T23:08:37.908Z,6.13
2023-01-13T23:11:08.698Z,13.07
2023-01-13T23:13:38.063Z,5.35
2023-01-13T23:16:16.604Z,2.38
2023-01-13T23:18:50.660Z,2.85
2023-01-13T23:21:33.450Z,2.55
2023-01-13T23:24:00.956Z,2.95
2023-01-13T23:26:29.325Z,7.03
2023-01-13T23:29:01.597Z,5.10
2023-01-13T23:31:29.541Z,4.93
2023-01-13T23:33:57.034Z,6.68
2023-01-13T23:36:26.332Z,3.60
2023-01-13T23:38:54.603Z,4.78
2023-01-13T23:41:24.534Z,5.15
2023-01-13T23:43:57.494Z,5.18
2023-01-13T23:46:25.985Z,4.00
2023-01-13T23:48:55.440Z,5.97
2023-01-13T23:51:23.577Z,5.53
2023-01-13T23:53:51.329Z,6.47
2023-01-13T23:56:27.817Z,5.38
2023-01-13T23:58:56.289Z,3.58
